Latest Coastal Weather Observations for Portland Airport

IDV60701

Issued at 4:25 pm EST Sunday 20 April 2014 (issued every 10 minutes, with the page automatically refreshed every 10 minutes)

About coastal observations | Map of coastal stations | Coastal observations for VIC | Marine services | Other Formats
Station Details ID: 090171 Name: CASHMORE AIRPORT Lat: -38.31 Lon: 141.47 Height: 80.9 m
Data from the previous 72 hours. | See also: Recent months at Portland Airport
Date/Time
EST
Temp

°C
Wind Pressure Rain
since 9am
mm
Weather Cloud Vis
km
Sea
Height
m
Swell
Dir
 
Speed
knots
Gust
knots
hPa Trend Height
m
Period
s
Dir
20/04:00pm 16.9 WNW 10 18 1015.2 - 1.0 - - 10 - - - -
20/03:30pm 17.1 WNW 11 15 1015.2 - 1.0 - - 10 - - - -
20/03:00pm 17.7 WNW 12 16 1015.2 - 1.0 - - 10 - - - -
20/02:30pm 17.2 WNW 13 18 1015.4 - 1.0 - - 10 - - - -
20/02:00pm 15.3 NW 13 18 1015.4 - 1.0 - - 10 - - - -
20/01:37pm 14.9 NW 12 18 1015.6 - 1.0 - - 10 - - - -
20/01:30pm 14.5 WNW 12 17 1015.6 - 1.0 - - 10 - - - -
20/01:07pm 15.2 WNW 16 25 1015.8 - 0.0 - - 5 - - - -
20/01:06pm 15.4 WNW 15 25 1015.8 - 0.0 - - 8 - - - -
20/01:00pm 16.4 WNW 11 17 1015.7 - 0.0 - - 10 - - - -
20/12:30pm 16.6 NW 12 18 1016.0 - 0.0 - - 10 - - - -
20/12:00pm 16.9 NW 15 20 1016.1 - 0.0 - - 10 - - - -
20/11:30am 16.8 NW 13 19 1016.4 - 0.0 - - 10 - - - -
20/11:00am 16.3 NNW 11 19 1016.5 - 0.0 - - 10 - - - -
20/10:30am 15.0 NNW 11 16 1016.7 - 0.0 - - 10 - - - -
20/10:00am 14.6 NNW 12 19 1016.8 - 0.0 - - 10 - - - -
20/09:30am 14.0 NNW 11 15 1016.9 - 0.0 - - 10 - - - -
20/09:00am 13.4 NNW 11 17 1016.8 - 0.6 - - 10 - - - -
20/08:30am 12.7 NNW 10 15 1016.6 - 0.6 - - 10 - - - -
20/08:00am 11.8 NNW 9 13 1016.6 - 0.6 - - 10 - - - -
20/07:30am 11.1 NNW 9 13 1016.4 - 0.6 - - 10 - - - -
20/07:00am 10.5 NNW 8 13 1016.3 - 0.6 - - 10 - - - -
20/06:30am 9.7 NNW 5 7 1016.2 - 0.6 - - 10 - - - -
20/06:00am 9.5 NNW 6 8 1016.1 - 0.6 - - 10 - - - -
20/05:30am 10.0 N 5 8 1016.0 - 0.6 - - 10 - - - -
20/05:00am 10.0 N 6 8 1015.9 - 0.6 - - 10 - - - -
20/04:30am 10.1 N 5 7 1015.8 - 0.6 - - 10 - - - -
20/04:00am 10.1 NNW 6 9 1015.8 - 0.6 - - 10 - - - -
20/03:30am 9.7 N 6 9 1016.0 - 0.6 - - 10 - - - -
20/03:00am 9.7 N 6 8 1016.1 - 0.6 - - 10 - - - -
20/02:30am 9.4 N 6 7 1016.4 - 0.6 - - 10 - - - -
20/02:00am 8.7 N 5 6 1016.7 - 0.6 - - 10 - - - -
20/01:30am 8.6 N 6 6 1016.7 - 0.6 - - 10 - - - -
20/01:00am 9.8 N 5 6 1016.8 - 0.6 - - 10 - - - -
20/12:30am 10.0 N 6 7 1017.1 - 0.6 - - 10 - - - -
20/12:00am 10.4 W 6 8 1017.5 - 0.6 - - 10 - - - -
 
Date/Time
EST
Temp

°C
Wind Pressure Rain
since 9am
mm
Weather Cloud Vis
km
Sea
Height
m
Swell
Dir
 
Speed
knots
Gust
knots
hPa Trend Height
m
Period
s
Dir
19/11:30pm 10.0 NW 4 6 1017.6 - 0.6 - - 10 - - - -
19/11:00pm 9.8 N 4 5 1017.9 - 0.6 - - 10 - - - -
19/10:30pm 10.1 CALM 0 5 1018.2 - 0.6 - - 10 - - - -
19/10:00pm 10.3 NE 3 4 1018.2 - 0.6 - - 10 - - - -
19/09:38pm 10.2 W 4 5 1018.6 - 0.6 - - 9 - - - -
19/09:30pm 10.2 W 5 7 1018.6 - 0.6 - - 7 - - - -
19/09:25pm 10.1 W 6 9 1018.7 - 0.6 - - 6 - - - -
19/09:00pm 9.9 N 4 5 1018.5 - 0.4 - - 10 - - - -
19/08:30pm 10.3 N 4 4 1018.6 - 0.4 - - 10 - - - -
19/08:00pm 10.5 N 4 5 1018.7 - 0.4 - - 10 - - - -
19/07:30pm 10.5 N 5 6 1019.0 - 0.4 - - 10 - - - -
19/07:24pm 10.6 N 5 8 1019.0 - 0.4 - - 10 - - - -
19/07:06pm 11.0 WNW 7 10 1019.1 - 0.4 - - 6 - - - -
19/07:00pm 10.4 WNW 3 6 1019.0 - 0.0 - - 10 - - - -
19/06:30pm 11.0 WNW 3 4 1018.8 - 0.0 - - 10 - - - -
19/06:00pm 11.5 WNW 3 4 1018.9 - 0.0 - - 10 - - - -
19/05:30pm 11.6 WNW 3 4 1019.0 - 0.0 - - 10 - - - -
19/05:00pm 12.2 WNW 6 7 1019.0 - 0.0 - - 10 - - - -
19/04:30pm 11.5 WNW 8 11 1019.3 - 0.0 - - 10 - - - -
19/04:00pm 14.0 W 7 10 1019.2 - 0.0 - - 10 - - - -
19/03:30pm 14.1 WSW 8 12 1019.3 - 0.0 - - 10 - - - -
19/03:00pm 13.3 WSW 5 8 1019.4 - 0.0 - - 10 - - - -
19/02:30pm 11.9 W 12 17 1019.7 - 0.0 - - 10 - - - -
19/02:00pm 15.1 W 6 9 1019.8 - 0.0 - - 10 - - - -
19/01:30pm 13.4 NW 5 8 1020.2 - 0.0 - - 10 - - - -
19/01:00pm 13.2 W 5 6 1020.6 - 0.0 - - 10 - - - -
19/12:30pm 12.9 WSW 6 9 1021.1 - 0.0 - - 10 - - - -
19/12:00pm 13.2 W 11 15 1021.4 - 0.0 - - 10 - - - -
19/11:30am 13.2 SSW 4 6 1021.6 - 0.0 - - 10 - - - -
19/11:00am 12.4 SSW 6 9 1021.8 - 0.0 - - 10 - - - -
19/10:30am 12.6 NW 7 10 1021.9 - 0.0 - - 10 - - - -
19/10:00am 12.4 SSW 5 7 1022.1 - 0.0 - - 10 - - - -
19/09:30am 13.3 SSW 4 5 1022.2 - 0.0 - - 10 - - - -
19/09:00am 12.8 WSW 3 5 1022.1 - 0.2 - - 10 - - - -
19/08:30am 12.4 WSW 4 5 1021.9 - 0.2 - - 10 - - - -
19/08:00am 10.8 WSW 4 5 1021.8 - 0.2 - - 10 - - - -
19/07:30am 9.4 SSW 2 4 1021.4 - 0.2 - - 10 - - - -
19/07:00am 9.5 SW 4 5 1021.3 - 0.2 - - 10 - - - -
19/06:30am 10.3 SSW 7 10 1021.1 - 0.2 - - 10 - - - -
19/06:00am 9.0 WSW 2 5 1021.1 - 0.2 - - 10 - - - -
19/05:30am 9.8 CALM 0 0 1021.0 - 0.2 - - 10 - - - -
19/05:00am 10.0 SW 1 4 1021.0 - 0.2 - - 10 - - - -
19/04:30am 9.7 W 6 8 1020.9 - 0.2 - - 10 - - - -
19/04:00am 10.7 SW 9 14 1021.0 - 0.2 - - 10 - - - -
19/03:30am 11.1 SSW 5 7 1021.0 - 0.2 - - 10 - - - -
19/03:00am 11.4 SSW 6 8 1021.1 - 0.2 - - 10 - - - -
19/02:30am 10.9 SW 6 9 1021.3 - 0.2 - - 10 - - - -
19/02:00am 10.8 WSW 7 8 1021.4 - 0.2 - - 10 - - - -
19/01:32am 11.0 WSW 8 12 1021.6 - 0.2 - - 10 - - - -
19/01:30am 11.0 WSW 9 12 1021.6 - 0.2 - - 10 - - - -
19/01:16am 11.6 WSW 6 9 1021.6 - 0.2 - - 6 - - - -
19/01:00am 11.6 WSW 5 5 1021.5 - 0.0 - - 10 - - - -
19/12:30am 12.3 SSW 4 6 1021.6 - 0.0 - - 10 - - - -
19/12:00am 12.1 S 4 5 1021.7 - 0.0 - - 10 - - - -
 
Date/Time
EST
Temp

°C
Wind Pressure Rain
since 9am
mm
Weather Cloud Vis
km
Sea
Height
m
Swell
Dir
 
Speed
knots
Gust
knots
hPa Trend Height
m
Period
s
Dir
18/11:30pm 12.5 SSW 9 14 1021.8 - 0.0 - - 10 - - - -
18/11:00pm 12.7 SSW 6 8 1022.0 - 0.0 - - 10 - - - -
18/10:30pm 12.5 SW 6 8 1022.0 - 0.0 - - 10 - - - -
18/10:00pm 12.9 SSW 5 8 1021.9 - 0.0 - - 10 - - - -
18/09:30pm 12.8 SW 6 9 1021.9 - 0.0 - - 10 - - - -
18/09:00pm 12.8 SW 7 12 1021.9 - 0.0 - - 10 - - - -
18/08:30pm 13.1 SSW 7 11 1021.7 - 0.0 - - 10 - - - -
18/08:00pm 12.5 SW 7 11 1021.5 - 0.0 - - 10 - - - -
18/07:30pm 13.0 SW 7 11 1021.4 - 0.0 - - 10 - - - -
18/07:00pm 12.5 SSW 7 11 1021.4 - 0.0 - - 10 - - - -
18/06:30pm 13.1 SW 10 18 1021.2 - 0.0 - - 10 - - - -
18/06:00pm 12.7 SW 8 11 1021.0 - 0.0 - - 10 - - - -
18/05:30pm 13.7 SW 11 17 1020.9 - 0.0 - - 10 - - - -
18/05:00pm 14.2 SW 11 16 1020.7 - 0.0 - - 10 - - - -
18/04:30pm 14.7 SW 12 19 1020.5 - 0.0 - - 10 - - - -
18/04:00pm 15.2 WSW 15 22 1020.2 - 0.0 - - 10 - - - -
18/03:30pm 15.3 SW 15 23 1020.0 - 0.0 - - 10 - - - -
18/03:00pm 14.3 WSW 11 19 1020.1 - 0.0 - - 10 - - - -
18/02:30pm 15.9 WSW 13 20 1019.9 - 0.0 - - 10 - - - -
18/02:16pm 15.8 SW 15 25 1019.8 - 0.0 - - 10 - - - -
18/02:00pm 15.9 SW 16 21 1019.8 - 0.0 - - 10 - - - -
18/01:30pm 16.2 SW 14 23 1019.6 - 0.0 - - 10 - - - -
18/01:00pm 15.7 SW 14 20 1019.6 - 0.0 - - 10 - - - -
18/12:30pm 16.1 SW 15 21 1019.5 - 0.0 - - 10 - - - -
18/12:00pm 15.0 SSW 13 19 1019.6 - 0.0 - - 10 - - - -
18/11:30am 15.0 SSW 12 20 1019.4 - 0.0 - - 10 - - - -
18/11:00am 15.8 SW 12 19 1019.1 - 0.0 - - 10 - - - -
18/10:30am 15.5 SSW 12 18 1018.9 - 0.0 - - 10 - - - -
18/10:00am 14.4 SW 12 21 1018.8 - 0.0 - - 10 - - - -
18/09:30am 14.9 SW 9 14 1018.5 - 0.0 - - 10 - - - -
18/09:00am 14.1 SW 10 15 1018.2 - 6.0 - - 10 - - - -
18/08:30am 13.7 SW 12 18 1017.9 - 6.0 - - 10 - - - -
18/08:00am 12.9 SW 13 17 1017.3 - 6.0 - - 10 - - - -
18/07:30am 12.6 SW 12 16 1016.6 - 6.0 - - 10 - - - -
18/07:00am 12.6 SW 12 17 1016.3 - 6.0 - - 10 - - - -
18/06:48am 12.6 WSW 11 17 1015.9 - 5.8 - - 10 - - - -
18/06:30am 12.8 SW 10 17 1015.6 - 5.6 - - 4 - - - -
18/06:24am 12.4 WSW 10 15 1015.4 - 5.2 - - 6 - - - -
18/06:12am 12.1 SW 11 16 1015.4 - 4.8 - - 10 - - - -
18/06:00am 12.3 SW 15 24 1015.4 - 4.8 - - 4 - - - -
18/05:47am 13.7 WSW 15 29 1015.1 - 3.6 - - 2 - - - -
18/05:34am 15.0 NW 16 23 1014.3 - 1.0 - - 6 - - - -
18/05:30am 15.0 NW 15 20 1014.2 - 0.6 - - 10 - - - -
18/05:00am 14.8 NW 12 20 1014.3 - 0.6 - - 10 - - - -
18/04:30am 13.9 NNW 10 14 1014.2 - 0.6 - - 10 - - - -
18/04:00am 13.8 NNW 10 15 1014.0 - 0.6 - - 10 - - - -
18/03:30am 13.8 NNW 8 11 1014.5 - 0.6 - - 10 - - - -
18/03:03am 14.0 NW 11 17 1014.7 - 0.6 - - 9 - - - -
18/03:00am 14.0 NW 11 15 1014.7 - 0.6 - - 10 - - - -
18/02:47am 14.1 WNW 11 16 1015.0 - 0.4 - - 6 - - - -
18/02:30am 14.4 NW 13 19 1015.1 - 0.4 - - 10 - - - -
18/02:00am 13.8 NNW 9 12 1015.1 - 0.2 - - 10 - - - -
18/01:30am 12.6 N 6 9 1015.4 - 0.2 - - 10 - - - -
18/01:00am 12.1 N 7 9 1015.5 - 0.2 - - 10 - - - -
18/12:30am 11.1 N 8 10 1015.8 - 0.2 - - 10 - - - -
18/12:00am 10.7 N 7 10 1016.2 - 0.2 - - 10 - - - -
 
Date/Time
EST
Temp

°C
Wind Pressure Rain
since 9am
mm
Weather Cloud Vis
km
Sea
Height
m
Swell
Dir
 
Speed
knots
Gust
knots
hPa Trend Height
m
Period
s
Dir
17/11:30pm 10.1 N 7 9 1016.8 - 0.2 - - 10 - - - -
17/11:00pm 10.2 N 6 8 1017.1 - 0.0 - - 10 - - - -
17/10:30pm 10.2 N 7 10 1017.6 - 0.0 - - 10 - - - -
17/10:00pm 10.0 N 7 9 1018.0 - 0.0 - - 10 - - - -
17/09:30pm 10.3 N 6 7 1018.0 - 0.0 - - 10 - - - -
17/09:00pm 11.3 NNW 6 8 1018.1 - 0.0 - - 10 - - - -
17/08:30pm 11.4 NW 7 8 1018.1 - 0.0 - - 8 - - - -
17/08:00pm 11.4 WNW 8 9 1018.1 - 0.0 - - 7 - - - -
17/07:47pm 11.4 WNW 8 10 1018.2 - 0.0 - - 7 - - - -
17/07:30pm 11.4 WNW 7 8 1018.3 - 0.0 - - 6 - - - -
17/07:05pm 12.1 WNW 7 8 1018.2 - 0.0 - - 6 - - - -
17/07:00pm 12.1 WNW 6 8 1018.2 - 0.0 - - 8 - - - -
17/06:30pm 12.2 WNW 6 7 1018.3 - 0.0 - - 9 - - - -
17/06:00pm 13.6 WNW 6 8 1018.4 - 0.0 - - 10 - - - -
17/05:30pm 14.5 W 6 7 1018.4 - 0.0 - - 10 - - - -
17/05:00pm 15.5 W 9 12 1018.5 - 0.0 - - 10 - - - -
17/04:30pm 16.6 W 10 14 1018.5 - 0.0 - - 10 - - - -

Other Formats:

Comma delimited format used in spreadsheet applications
http://www.bom.gov.au/fwo/IDV60701/IDV60701.94828.axf

JavaScript Object Notation format (JSON) in row-major order
http://www.bom.gov.au/fwo/IDV60701/IDV60701.94828.json